Latest Weather Observations for Lake Macquarie - Cooranbong

IDN60901

Issued at 1:11 pm EST Sunday 30 April 2017 (issued every 10 minutes, with the page automatically refreshed every 10 minutes)

About weather observations | Map of Sydney area stations | Latest observations for Sydney area | Other Formats
Station Details ID: 061412 Name: LAKE MACQUARIE AWS Lat: -33.09 Lon: 151.46 Height: 6.0 m
Data from the previous 72 hours. | See also: Recent months at Lake Macquarie - Cooranbong
Date/Time
EST
Temp
°C
App
Temp
°C
Dew
Point
°C
Rel
Hum
%
Delta-T
°C
Wind Press
QNH
hPa
Press
MSL
hPa
Rain since
9am
mm
Dir  Spd
km/h
Gust
km/h
Spd
kts
Gust
kts
30/01:00pm 21.4 21.4 12.3 56 5.1 SSE 4 9 2 5 1021.1 1021.1 0.0
30/12:30pm 21.7 20.5 11.7 53 5.6 SE 9 15 5 8 1021.3 1021.3 0.0
30/12:00pm 21.1 20.7 12.5 58 4.8 SE 6 13 3 7 1021.8 1021.8 0.0
30/11:30am 21.3 20.7 11.6 54 5.4 SSW 6 13 3 7 1022.0 1022.0 0.0
30/11:00am 20.8 20.8 12.5 59 4.7 SSE 4 11 2 6 1022.4 1022.4 0.0
30/10:30am 20.0 19.5 12.0 60 4.5 S 6 11 3 6 1022.6 1022.6 0.0
30/10:00am 19.3 18.7 11.8 62 4.1 SSW 6 9 3 5 1022.7 1022.7 0.0
30/09:30am 19.6 20.4 13.8 69 3.3 W 2 6 1 3 1022.8 1022.8 0.0
30/09:00am 18.2 19.1 13.9 76 2.4 W 2 6 1 3 1023.0 1023.0 0.4
30/08:30am 15.7 16.5 13.7 88 1.1 NW 2 6 1 3 1023.0 1023.0 0.4
30/08:00am 14.5 14.7 13.2 92 0.7 NW 4 6 2 3 1023.0 1023.0 0.4
30/07:30am 13.7 14.2 12.8 94 0.5 NW 2 4 1 2 1023.0 1023.0 0.4
30/07:00am 13.3 14.1 12.4 94 0.5 CALM 0 0 0 0 1022.9 1022.9 0.4
30/06:30am 13.4 14.2 12.6 95 0.4 CALM 0 4 0 2 1022.6 1022.6 0.2
30/06:00am 13.2 13.6 12.4 95 0.4 WSW 2 6 1 3 1022.3 1022.3 0.2
30/05:30am 11.9 12.3 11.3 96 0.3 CALM 0 4 0 2 1022.3 1022.3 0.0
30/05:00am 11.0 11.2 10.4 96 0.3 CALM 0 0 0 0 1021.9 1021.9 0.0
30/04:30am 10.3 10.2 9.5 95 0.4 CALM 0 0 0 0 1021.7 1021.7 0.0
30/04:00am 10.0 9.8 9.2 95 0.4 CALM 0 0 0 0 1021.4 1021.4 0.0
30/03:30am 10.2 10.1 9.4 95 0.4 CALM 0 0 0 0 1021.1 1021.1 0.0
30/03:00am 9.8 9.6 9.0 95 0.4 CALM 0 2 0 1 1021.1 1021.1 0.0
30/02:30am 8.9 8.4 8.0 94 0.4 CALM 0 0 0 0 1021.2 1021.2 0.0
30/02:00am 8.8 8.3 7.9 94 0.4 CALM 0 0 0 0 1021.3 1021.3 0.0
30/01:30am 9.1 8.6 8.0 93 0.5 CALM 0 0 0 0 1021.5 1021.5 0.0
30/01:00am 9.2 8.7 8.0 92 0.6 CALM 0 0 0 0 1021.6 1021.6 0.0
30/12:30am 9.2 8.7 8.0 92 0.6 CALM 0 0 0 0 1021.6 1021.6 0.0
30/12:00am 9.5 9.1 8.4 93 0.5 CALM 0 0 0 0 1021.7 1021.7 0.0
 
Date/Time
EST
Temp
°C
App
Temp
°C
Dew
Point
°C
Rel
Hum
%
Delta-T
°C
Wind Press
QNH
hPa
Press
MSL
hPa
Rain since
9am
mm
Dir  Spd
km/h
Gust
km/h
Spd
kts
Gust
kts
29/11:30pm 9.7 9.4 8.5 92 0.6 CALM 0 0 0 0 1021.6 1021.6 0.0
29/11:00pm 10.0 9.7 8.8 92 0.6 CALM 0 0 0 0 1021.7 1021.7 0.0
29/10:30pm 10.2 10.0 9.0 92 0.6 CALM 0 0 0 0 1021.7 1021.7 0.0
29/10:00pm 10.5 10.3 8.9 90 0.8 CALM 0 0 0 0 1021.7 1021.7 0.0
29/09:30pm 10.6 10.4 8.9 89 0.8 CALM 0 0 0 0 1021.6 1021.6 0.0
29/09:00pm 11.1 11.0 9.4 89 0.8 CALM 0 0 0 0 1021.4 1021.4 0.0
29/08:30pm 11.3 11.2 9.4 88 1.0 CALM 0 0 0 0 1021.3 1021.3 0.0
29/08:00pm 11.8 11.8 9.9 88 1.0 CALM 0 0 0 0 1021.1 1021.1 0.0
29/07:30pm 12.4 12.6 10.6 89 0.9 CALM 0 0 0 0 1020.9 1020.9 0.0
29/07:00pm 12.7 12.9 10.6 87 1.1 CALM 0 2 0 1 1020.8 1020.8 0.0
29/06:30pm 13.4 13.6 10.6 83 1.5 CALM 0 0 0 0 1020.5 1020.5 0.0
29/06:00pm 14.4 14.5 10.2 76 2.2 CALM 0 0 0 0 1020.0 1020.0 0.0
29/05:30pm 15.8 15.9 10.1 69 3.0 CALM 0 0 0 0 1019.5 1019.5 0.0
29/05:00pm 18.7 18.8 10.0 57 4.6 CALM 0 4 0 2 1019.1 1019.1 0.0
29/04:30pm 19.5 19.1 9.7 53 5.2 ESE 2 6 1 3 1018.7 1018.7 0.0
29/04:00pm 20.0 18.6 8.7 48 5.9 SSE 6 9 3 5 1018.4 1018.4 0.0
29/03:30pm 20.3 18.4 9.2 49 5.9 ESE 9 13 5 7 1018.3 1018.3 0.0
29/03:00pm 20.9 19.6 9.8 49 6.0 SE 7 11 4 6 1018.3 1018.3 0.0
29/02:30pm 21.1 19.7 9.7 48 6.1 ESE 7 13 4 7 1018.2 1018.2 0.0
29/02:00pm 21.8 20.4 9.7 46 6.5 ESE 7 11 4 6 1018.1 1018.1 0.0
29/01:30pm 21.5 20.0 8.4 43 6.9 ESE 6 11 3 6 1018.1 1018.1 0.0
29/01:00pm 21.9 20.2 7.7 40 7.4 E 6 9 3 5 1018.5 1018.5 0.0
29/12:30pm 22.0 20.2 7.0 38 7.7 N 6 9 3 5 1019.0 1019.0 0.0
29/12:00pm 22.1 20.9 8.2 41 7.3 NNE 4 7 2 4 1019.4 1019.4 0.0
29/11:30am 21.6 20.6 7.4 40 7.3 ENE 2 6 1 3 1019.8 1019.8 0.0
29/11:00am 21.1 20.3 8.0 43 6.8 NNE 2 6 1 3 1020.3 1020.3 0.0
29/10:30am 19.7 19.3 8.4 48 5.9 CALM 0 4 0 2 1020.3 1020.3 0.0
29/10:00am 19.3 18.6 10.0 55 5.0 NNE 4 6 2 3 1020.6 1020.6 0.0
29/09:30am 17.3 16.8 9.2 59 4.2 NNE 2 4 1 2 1020.6 1020.6 0.0
29/09:00am 14.7 14.0 8.6 67 3.1 NNE 2 4 1 2 1020.7 1020.7 0.0
29/08:30am 12.3 12.7 11.4 94 0.5 CALM 0 0 0 0 1021.0 1021.0 0.0
29/08:00am 9.6 9.4 9.0 96 0.3 CALM 0 0 0 0 1020.9 1020.9 0.0
29/07:30am 7.3 6.5 6.6 95 0.3 CALM 0 0 0 0 1020.8 1020.8 0.0
29/07:00am 5.8 4.7 4.9 94 0.4 CALM 0 0 0 0 1020.5 1020.5 0.0
29/06:30am 5.8 4.7 4.9 94 0.4 CALM 0 0 0 0 1020.3 1020.3 0.0
29/06:00am 5.9 4.8 5.0 94 0.4 CALM 0 0 0 0 1020.0 1020.0 0.0
29/05:30am 6.1 5.0 5.2 94 0.4 CALM 0 0 0 0 1019.9 1019.9 0.0
29/05:00am 6.4 5.4 5.5 94 0.4 CALM 0 0 0 0 1019.7 1019.7 0.0
29/04:30am 6.6 5.6 5.7 94 0.4 CALM 0 0 0 0 1019.8 1019.8 0.0
29/04:00am 6.7 5.7 5.8 94 0.4 CALM 0 0 0 0 1019.7 1019.7 0.0
29/03:30am 6.8 5.8 5.7 93 0.5 CALM 0 0 0 0 1019.7 1019.7 0.0
29/03:00am 7.2 6.3 6.1 93 0.5 CALM 0 0 0 0 1019.6 1019.6 0.0
29/02:30am 7.3 6.4 6.2 93 0.5 CALM 0 0 0 0 1020.1 1020.1 0.0
29/02:00am 7.5 6.7 6.4 93 0.5 CALM 0 0 0 0 1020.2 1020.2 0.0
29/01:30am 7.8 7.0 6.6 92 0.6 CALM 0 0 0 0 1020.6 1020.6 0.0
29/01:00am 7.9 7.1 6.7 92 0.6 CALM 0 0 0 0 1020.6 1020.6 0.0
29/12:30am 8.3 7.6 7.1 92 0.6 CALM 0 0 0 0 1020.7 1020.7 0.0
29/12:00am 8.3 7.6 6.9 91 0.6 CALM 0 0 0 0 1021.0 1021.0 0.0
 
Date/Time
EST
Temp
°C
App
Temp
°C
Dew
Point
°C
Rel
Hum
%
Delta-T
°C
Wind Press
QNH
hPa
Press
MSL
hPa
Rain since
9am
mm
Dir  Spd
km/h
Gust
km/h
Spd
kts
Gust
kts
28/11:30pm 8.4 7.7 6.9 90 0.7 CALM 0 0 0 0 1021.2 1021.2 0.0
28/11:00pm 8.8 8.2 7.4 91 0.7 CALM 0 0 0 0 1021.2 1021.2 0.0
28/10:30pm 9.0 8.4 7.6 91 0.7 CALM 0 0 0 0 1021.6 1021.6 0.0
28/10:00pm 9.3 8.8 7.7 90 0.8 CALM 0 0 0 0 1021.8 1021.8 0.0
28/09:30pm 9.6 9.1 7.9 89 0.8 CALM 0 0 0 0 1021.8 1021.8 0.0
28/09:00pm 9.8 9.3 7.9 88 0.9 CALM 0 0 0 0 1021.7 1021.7 0.0
28/08:30pm 10.3 9.9 8.4 88 0.9 CALM 0 0 0 0 1021.5 1021.5 0.0
28/08:00pm 10.6 10.2 8.4 86 1.1 CALM 0 0 0 0 1021.6 1021.6 0.0
28/07:30pm 11.1 10.8 8.5 84 1.3 CALM 0 0 0 0 1021.6 1021.6 0.0
28/07:00pm 11.5 11.2 8.5 82 1.5 CALM 0 0 0 0 1021.5 1021.5 0.0
28/06:30pm 12.4 12.1 8.5 77 1.9 CALM 0 0 0 0 1021.3 1021.3 0.0
28/06:00pm 13.6 13.4 8.9 73 2.4 CALM 0 0 0 0 1021.1 1021.1 0.0
28/05:30pm 15.5 15.2 8.7 64 3.5 CALM 0 0 0 0 1020.8 1020.8 0.0
28/05:00pm 17.1 15.9 8.0 55 4.6 SSE 4 9 2 5 1020.7 1020.7 0.0
28/04:30pm 18.2 16.6 7.9 51 5.3 SSE 6 9 3 5 1020.3 1020.3 0.0
28/04:00pm 19.0 17.0 6.2 43 6.3 SSE 6 7 3 4 1020.4 1020.4 0.0
28/03:30pm 20.1 17.4 2.5 31 8.2 WSW 6 9 3 5 1020.4 1020.4 0.0
28/03:00pm 20.2 17.5 2.5 31 8.2 SSW 6 11 3 6 1020.4 1020.4 0.0
28/02:30pm 20.4 17.4 1.8 29 8.5 WSW 7 15 4 8 1020.4 1020.4 0.0
28/02:00pm 20.7 18.2 3.9 33 8.0 WSW 6 13 3 7 1020.4 1020.4 0.0
28/01:30pm 19.9 16.9 4.0 35 7.6 WSW 9 17 5 9 1020.5 1020.5 0.0
28/01:00pm 19.9 17.6 5.9 40 6.9 SW 7 17 4 9 1020.9 1020.9 0.0
28/12:30pm 20.0 18.3 7.4 44 6.4 S 6 11 3 6 1021.2 1021.2 0.0
28/12:00pm 19.3 17.3 7.1 45 6.1 S 7 17 4 9 1021.8 1021.8 0.0
28/11:30am 18.7 16.5 7.8 49 5.6 SW 9 17 5 9 1022.2 1022.2 0.0
28/11:00am 18.3 16.3 7.1 48 5.6 SW 7 15 4 8 1022.4 1022.4 0.0
28/10:30am 18.0 15.7 7.4 50 5.3 SW 9 17 5 9 1022.6 1022.6 0.0
28/10:00am 17.3 14.9 6.8 50 5.2 WSW 9 13 5 7 1022.6 1022.6 0.0
28/09:30am 16.5 14.3 6.3 51 5.0 SW 7 20 4 11 1022.6 1022.6 0.0
28/09:00am 15.7 13.3 5.3 50 4.9 WSW 7 17 4 9 1022.6 1022.6 0.0
28/08:30am 14.7 11.8 4.7 51 4.7 WSW 9 19 5 10 1022.4 1022.4 0.0
28/08:00am 13.9 11.6 5.0 55 4.1 SW 6 9 3 5 1022.1 1022.1 0.0
28/07:30am 13.1 10.5 4.3 55 4.0 SW 7 15 4 8 1021.7 1021.7 0.0
28/07:00am 12.2 10.2 4.4 59 3.5 SW 4 9 2 5 1021.3 1021.3 0.0
28/06:30am 12.3 9.9 4.3 58 3.6 WSW 6 11 3 6 1020.9 1020.9 0.0
28/06:00am 12.5 10.1 4.2 57 3.7 WSW 6 15 3 8 1020.7 1020.7 0.0
28/05:30am 12.8 10.3 4.5 57 3.8 SW 7 15 4 8 1020.5 1020.5 0.0
28/05:00am 13.4 10.9 4.8 56 4.0 WSW 7 13 4 7 1020.2 1020.2 0.0
28/04:30am 13.7 11.5 5.1 56 4.0 WSW 6 11 3 6 1019.9 1019.9 0.0
28/04:00am 13.9 11.6 5.5 57 3.9 WSW 7 13 4 7 1019.7 1019.7 0.0
28/03:30am 14.3 12.0 5.7 56 4.1 SW 7 17 4 9 1019.4 1019.4 0.0
28/03:00am 14.8 12.2 5.9 55 4.2 SW 9 17 5 9 1019.3 1019.3 0.0
28/02:30am 14.9 12.8 6.5 57 4.1 SW 7 19 4 10 1019.2 1019.2 0.0
28/02:00am 14.7 13.2 6.8 59 3.8 SW 4 9 2 5 1019.2 1019.2 0.0
28/01:30am 15.1 12.7 6.9 58 4.0 SW 9 30 5 16 1019.2 1019.2 0.0
28/01:00am 15.3 13.2 6.8 57 4.1 WSW 7 20 4 11 1018.8 1018.8 0.0
28/12:30am 15.3 13.2 6.6 56 4.2 SW 7 15 4 8 1018.6 1018.6 0.0
28/12:00am 15.3 13.4 6.8 57 4.1 WSW 6 15 3 8 1018.6 1018.6 0.0
 
Date/Time
EST
Temp
°C
App
Temp
°C
Dew
Point
°C
Rel
Hum
%
Delta-T
°C
Wind Press
QNH
hPa
Press
MSL
hPa
Rain since
9am
mm
Dir  Spd
km/h
Gust
km/h
Spd
kts
Gust
kts
27/11:30pm 15.1 13.5 6.4 56 4.2 SW 4 9 2 5 1018.5 1018.5 0.0
27/11:00pm 15.1 12.9 6.4 56 4.2 WSW 7 13 4 7 1018.5 1018.5 0.0
27/10:30pm 15.0 13.6 7.3 60 3.8 WSW 4 7 2 4 1018.7 1018.7 0.0
27/10:00pm 14.4 13.3 8.4 67 3.0 WSW 4 7 2 4 1018.6 1018.6 0.0
27/09:30pm 13.3 13.1 9.0 75 2.2 CALM 0 4 0 2 1018.3 1018.3 0.0
27/09:00pm 13.5 13.5 9.9 79 1.8 CALM 0 0 0 0 1018.3 1018.3 0.0
27/08:30pm 12.7 12.7 9.7 82 1.5 CALM 0 2 0 1 1018.3 1018.3 0.0
27/08:00pm 11.8 11.2 8.8 82 1.5 WSW 2 4 1 2 1018.2 1018.2 0.0
27/07:30pm 11.8 11.5 8.6 81 1.6 CALM 0 0 0 0 1018.0 1018.0 0.0
27/07:00pm 12.2 11.8 8.1 76 2.0 CALM 0 0 0 0 1017.8 1017.8 0.0
27/06:30pm 12.6 11.8 8.3 75 2.1 NW 2 6 1 3 1017.4 1017.4 0.0
27/06:00pm 12.8 12.4 8.1 73 2.3 CALM 0 0 0 0 1016.9 1016.9 0.0
27/05:30pm 14.9 14.0 7.7 62 3.6 WSW 2 4 1 2 1016.6 1016.6 0.0
27/05:00pm 16.8 15.7 6.9 52 4.9 SSW 2 6 1 3 1016.2 1016.2 0.0
27/04:30pm 17.4 15.7 5.7 46 5.7 S 4 13 2 7 1015.9 1015.9 0.0
27/04:00pm 18.2 16.3 4.7 41 6.5 S 4 9 2 5 1015.6 1015.6 0.0
27/03:30pm 18.9 16.4 3.5 36 7.2 SSW 6 15 3 8 1015.4 1015.4 0.0
27/03:00pm 19.1 16.5 4.1 37 7.1 SW 7 13 4 7 1015.2 1015.2 0.0
27/02:30pm 18.5 15.6 2.4 34 7.4 S 7 15 4 8 1014.9 1014.9 0.0
27/02:00pm 18.8 15.8 4.2 38 6.9 SW 9 17 5 9 1014.7 1014.7 0.0
27/01:30pm 18.6 15.8 3.3 36 7.1 WSW 7 13 4 7 1014.6 1014.6 0.0

Latest Capital City Observations: Canberra | Sydney | Melbourne | Brisbane | Adelaide | Perth | Hobart | Darwin

Other Formats:

Comma delimited format used in spreadsheet applications
http://www.bom.gov.au/fwo/IDN60901/IDN60901.95767.axf

JavaScript Object Notation format (JSON) in row-major order
http://www.bom.gov.au/fwo/IDN60901/IDN60901.95767.json